EDW231 GCLA-LSZH
Flight info
| Callsign | EDW231 |
|---|---|
| Flight time | N/A |
| Altitude | 34000 |
| Route | SAMAR DCT DIMSA UN858 SUNID/N0440F360 UN858 AKUDA/N0376F240 UN858 PESAS/N0439F360 N858 OSLEP N747 YES M985 BCN DCT KANIG DCT RISOR T45 SOSAL N871 BERSU |
| Aircraft | A320/M-SDE3FGHIRWY/LB1 |
Departure
| Time | N/A |
|---|---|
| Airport | La Palma Airport (GCLA) |
Arrival
| Time | 2026-05-06 19:21 |
|---|---|
| Airport | Zürich Airport (LSZH) |
| Time | Latitude | Longitude | Altitude | Speed | Heading |
|---|---|---|---|---|---|
| 2026-05-06 18:40 | 44.22447 | 4.63613 | 34917 ft | 491 kts | 33° |
| 2026-05-06 18:40 | 44.28032 | 4.69107 | 34919 ft | 491 kts | 33° |
| 2026-05-06 18:41 | 44.33619 | 4.74610 | 34924 ft | 491 kts | 33° |
| 2026-05-06 18:41 | 44.39194 | 4.80120 | 34932 ft | 491 kts | 33° |
| 2026-05-06 18:42 | 44.44768 | 4.85641 | 34932 ft | 490 kts | 33° |
| 2026-05-06 18:42 | 44.50327 | 4.91163 | 34934 ft | 490 kts | 33° |
| 2026-05-06 18:43 | 44.55880 | 4.96692 | 34930 ft | 489 kts | 33° |
| 2026-05-06 18:43 | 44.61430 | 5.02224 | 34929 ft | 490 kts | 33° |
| 2026-05-06 18:44 | 44.66979 | 5.07777 | 34929 ft | 490 kts | 33° |
| 2026-05-06 18:44 | 44.72531 | 5.13346 | 34928 ft | 490 kts | 33° |
| 2026-05-06 18:45 | 44.78085 | 5.18919 | 34936 ft | 491 kts | 33° |
| 2026-05-06 18:45 | 44.83636 | 5.24508 | 34936 ft | 491 kts | 33° |
| 2026-05-06 18:46 | 44.89185 | 5.30114 | 34958 ft | 490 kts | 34° |
| 2026-05-06 18:46 | 44.94722 | 5.35721 | 34937 ft | 489 kts | 34° |
| 2026-05-06 18:47 | 45.00252 | 5.41338 | 34940 ft | 490 kts | 34° |
| 2026-05-06 18:47 | 45.05799 | 5.46971 | 34948 ft | 491 kts | 34° |
| 2026-05-06 18:48 | 45.11339 | 5.52617 | 34963 ft | 490 kts | 34° |
| 2026-05-06 18:48 | 45.16863 | 5.58272 | 34965 ft | 490 kts | 34° |
| 2026-05-06 18:49 | 45.22383 | 5.63936 | 34948 ft | 489 kts | 34° |
| 2026-05-06 18:49 | 45.27903 | 5.69591 | 34974 ft | 489 kts | 34° |
| 2026-05-06 18:50 | 45.33410 | 5.75252 | 34974 ft | 488 kts | 34° |
| 2026-05-06 18:50 | 45.38810 | 5.80837 | 34971 ft | 487 kts | 34° |
| 2026-05-06 18:51 | 45.44283 | 5.86513 | 34952 ft | 487 kts | 35° |
| 2026-05-06 18:51 | 45.49768 | 5.92201 | 34954 ft | 487 kts | 35° |
| 2026-05-06 18:52 | 45.55269 | 5.97845 | 34953 ft | 487 kts | 33° |
| 2026-05-06 18:52 | 45.60983 | 6.03048 | 34952 ft | 487 kts | 30° |
| 2026-05-06 18:53 | 45.66806 | 6.07975 | 34965 ft | 486 kts | 29° |
| 2026-05-06 18:53 | 45.72598 | 6.12981 | 34964 ft | 486 kts | 30° |
| 2026-05-06 18:54 | 45.78335 | 6.18112 | 34966 ft | 486 kts | 31° |
| 2026-05-06 18:54 | 45.84053 | 6.23266 | 34973 ft | 485 kts | 31° |
| 2026-05-06 18:55 | 45.89780 | 6.28394 | 34961 ft | 484 kts | 31° |
| 2026-05-06 18:55 | 45.95499 | 6.33501 | 34949 ft | 484 kts | 31° |
| 2026-05-06 18:56 | 46.01217 | 6.38650 | 34943 ft | 485 kts | 31° |
| 2026-05-06 18:56 | 46.06929 | 6.43819 | 34940 ft | 485 kts | 31° |
| 2026-05-06 18:57 | 46.12645 | 6.48994 | 34940 ft | 485 kts | 31° |
| 2026-05-06 18:57 | 46.18362 | 6.54166 | 34950 ft | 485 kts | 31° |
| 2026-05-06 18:58 | 46.24072 | 6.59347 | 34949 ft | 485 kts | 31° |
| 2026-05-06 18:58 | 46.29775 | 6.64534 | 34948 ft | 485 kts | 31° |
| 2026-05-06 18:59 | 46.35475 | 6.69742 | 34947 ft | 484 kts | 32° |
| 2026-05-06 18:59 | 46.41160 | 6.74962 | 34957 ft | 483 kts | 32° |
| 2026-05-06 19:00 | 46.46842 | 6.80192 | 34960 ft | 483 kts | 32° |
| 2026-05-06 19:00 | 46.52516 | 6.85417 | 34952 ft | 483 kts | 32° |
| 2026-05-06 19:01 | 46.57611 | 6.91721 | 34902 ft | 483 kts | 50° |
| 2026-05-06 19:01 | 46.61803 | 6.99234 | 34913 ft | 485 kts | 52° |
| 2026-05-06 19:02 | 46.66050 | 7.06892 | 34702 ft | 489 kts | 52° |
| 2026-05-06 19:02 | 46.68187 | 7.10750 | 34469 ft | 489 kts | 52° |
| 2026-05-06 19:02 | 46.70321 | 7.14612 | 34236 ft | 490 kts | 52° |
| 2026-05-06 19:02 | 46.72433 | 7.18441 | 34011 ft | 490 kts | 52° |
| 2026-05-06 19:03 | 46.74595 | 7.22363 | 33766 ft | 491 kts | 52° |
| 2026-05-06 19:03 | 46.76723 | 7.26230 | 33477 ft | 488 kts | 52° |
| 2026-05-06 19:03 | 46.78841 | 7.30085 | 33204 ft | 486 kts | 52° |
| 2026-05-06 19:03 | 46.80955 | 7.33935 | 32896 ft | 485 kts | 52° |
| 2026-05-06 19:04 | 46.83073 | 7.37795 | 31875 ft | 490 kts | 53° |
| 2026-05-06 19:04 | 46.85170 | 7.41616 | 31334 ft | 485 kts | 53° |
| 2026-05-06 19:04 | 46.87267 | 7.45454 | 30712 ft | 481 kts | 53° |
| 2026-05-06 19:04 | 46.89338 | 7.49270 | 30105 ft | 477 kts | 53° |
| 2026-05-06 19:05 | 46.91390 | 7.53065 | 29447 ft | 473 kts | 53° |
| 2026-05-06 19:05 | 46.93416 | 7.56815 | 28871 ft | 467 kts | 53° |
| 2026-05-06 19:05 | 46.95418 | 7.60517 | 28277 ft | 462 kts | 53° |
| 2026-05-06 19:05 | 46.97399 | 7.64175 | 27707 ft | 456 kts | 53° |
| 2026-05-06 19:06 | 46.99359 | 7.67797 | 27130 ft | 451 kts | 53° |
| 2026-05-06 19:06 | 47.01299 | 7.71380 | 26559 ft | 446 kts | 53° |
| 2026-05-06 19:06 | 47.03222 | 7.74928 | 26016 ft | 442 kts | 53° |
| 2026-05-06 19:06 | 47.05122 | 7.78442 | 25469 ft | 438 kts | 53° |
| 2026-05-06 19:07 | 47.07002 | 7.81927 | 24942 ft | 433 kts | 53° |
| 2026-05-06 19:07 | 47.08233 | 7.84211 | 24603 ft | 430 kts | 53° |
| 2026-05-06 19:07 | 47.10694 | 7.88794 | 23921 ft | 424 kts | 54° |
| 2026-05-06 19:07 | 47.12501 | 7.92177 | 23421 ft | 419 kts | 55° |
| 2026-05-06 19:08 | 47.14050 | 7.95748 | 22918 ft | 411 kts | 65° |
| 2026-05-06 19:08 | 47.15262 | 7.99505 | 22467 ft | 404 kts | 68° |
| 2026-05-06 19:08 | 47.16446 | 8.03224 | 22012 ft | 399 kts | 67° |
| 2026-05-06 19:08 | 47.17622 | 8.06896 | 21558 ft | 395 kts | 67° |
| 2026-05-06 19:09 | 47.18786 | 8.10527 | 21123 ft | 391 kts | 67° |
| 2026-05-06 19:09 | 47.19936 | 8.14125 | 20678 ft | 387 kts | 67° |
| 2026-05-06 19:09 | 47.21071 | 8.17700 | 20192 ft | 385 kts | 67° |
| 2026-05-06 19:09 | 47.22199 | 8.21267 | 19683 ft | 383 kts | 67° |
| 2026-05-06 19:10 | 47.23323 | 8.24815 | 19220 ft | 382 kts | 66° |
| 2026-05-06 19:10 | 47.24510 | 8.28292 | 18768 ft | 380 kts | 64° |
| 2026-05-06 19:10 | 47.25764 | 8.31710 | 18329 ft | 377 kts | 63° |
| 2026-05-06 19:10 | 47.27038 | 8.35062 | 17793 ft | 372 kts | 62° |
| 2026-05-06 19:11 | 47.28304 | 8.38364 | 16860 ft | 369 kts | 62° |
| 2026-05-06 19:11 | 47.29557 | 8.41644 | 15990 ft | 366 kts | 62° |
| 2026-05-06 19:11 | 47.30788 | 8.44913 | 15157 ft | 364 kts | 62° |
| 2026-05-06 19:11 | 47.32000 | 8.48178 | 14331 ft | 362 kts | 62° |
| 2026-05-06 19:12 | 47.33075 | 8.51511 | 13510 ft | 358 kts | 72° |
| 2026-05-06 19:12 | 47.33675 | 8.55042 | 12607 ft | 353 kts | 84° |
| 2026-05-06 19:12 | 47.33776 | 8.58617 | 11806 ft | 347 kts | 96° |
| 2026-05-06 19:12 | 47.33529 | 8.62129 | 10976 ft | 343 kts | 98° |
| 2026-05-06 19:13 | 47.33275 | 8.65605 | 10144 ft | 339 kts | 98° |
| 2026-05-06 19:13 | 47.33032 | 8.69023 | 9641 ft | 325 kts | 98° |
| 2026-05-06 19:13 | 47.32809 | 8.72230 | 9331 ft | 307 kts | 98° |
| 2026-05-06 19:13 | 47.32592 | 8.75332 | 8731 ft | 302 kts | 98° |
| 2026-05-06 19:14 | 47.32374 | 8.78390 | 8079 ft | 299 kts | 98° |
| 2026-05-06 19:14 | 47.32151 | 8.81419 | 7434 ft | 297 kts | 98° |
| 2026-05-06 19:14 | 47.32102 | 8.84438 | 6902 ft | 291 kts | 78° |
| 2026-05-06 19:14 | 47.32869 | 8.87051 | 6731 ft | 271 kts | 49° |
| 2026-05-06 19:15 | 47.34275 | 8.88706 | 6573 ft | 253 kts | 18° |
| 2026-05-06 19:15 | 47.35921 | 8.89376 | 6349 ft | 242 kts | 6° |
| 2026-05-06 19:15 | 47.37568 | 8.89799 | 6038 ft | 239 kts | 4° |
| 2026-05-06 19:15 | 47.39196 | 8.89965 | 5714 ft | 231 kts | 348° |
| 2026-05-06 19:16 | 47.40224 | 8.89678 | 5498 ft | 225 kts | 337° |
| 2026-05-06 19:16 | 47.41612 | 8.88701 | 5184 ft | 218 kts | 320° |
| 2026-05-06 19:16 | 47.42697 | 8.87204 | 5004 ft | 212 kts | 303° |
| 2026-05-06 19:16 | 47.43580 | 8.84678 | 5005 ft | 209 kts | 282° |
| 2026-05-06 19:17 | 47.43760 | 8.83260 | 5013 ft | 207 kts | 274° |
| 2026-05-06 19:17 | 47.43958 | 8.80529 | 4885 ft | 199 kts | 274° |
| 2026-05-06 19:17 | 47.44059 | 8.79163 | 4725 ft | 197 kts | 274° |
| 2026-05-06 19:17 | 47.44206 | 8.77160 | 4446 ft | 195 kts | 274° |
| 2026-05-06 19:18 | 47.44348 | 8.75221 | 4196 ft | 188 kts | 274° |
| 2026-05-06 19:18 | 47.44487 | 8.73325 | 3858 ft | 184 kts | 274° |
| 2026-05-06 19:18 | 47.44624 | 8.71449 | 3588 ft | 178 kts | 274° |
| 2026-05-06 19:18 | 47.44751 | 8.69680 | 3344 ft | 167 kts | 274° |
| 2026-05-06 19:19 | 47.44872 | 8.68043 | 3106 ft | 153 kts | 274° |
| 2026-05-06 19:19 | 47.44977 | 8.66566 | 2906 ft | 139 kts | 274° |
| 2026-05-06 19:19 | 47.45075 | 8.65165 | 2709 ft | 135 kts | 274° |
| 2026-05-06 19:19 | 47.45171 | 8.63806 | 2498 ft | 135 kts | 273° |
| 2026-05-06 19:20 | 47.45274 | 8.62399 | 2260 ft | 136 kts | 274° |
| 2026-05-06 19:20 | 47.45377 | 8.61017 | 2081 ft | 140 kts | 274° |
| 2026-05-06 19:20 | 47.45482 | 8.59563 | 1869 ft | 142 kts | 274° |
| 2026-05-06 19:20 | 47.45583 | 8.58109 | 1628 ft | 142 kts | 274° |
| 2026-05-06 19:21 | 47.45687 | 8.56673 | 1437 ft | 139 kts | 274° |
| 2026-05-06 19:21 | 47.45775 | 8.55410 | 1400 ft | 103 kts | 276° |
| 2026-05-06 19:21 | 47.45828 | 8.54685 | 1391 ft | 36 kts | 276° |
| 2026-05-06 19:21 | 47.45785 | 8.54360 | 1387 ft | 25 kts | 246° |
| 2026-05-06 19:22 | 47.45704 | 8.54207 | 1384 ft | 16 kts | 197° |
| 2026-05-06 19:22 | 47.45613 | 8.54284 | 1386 ft | 17 kts | 115° |
| 2026-05-06 19:22 | 47.45577 | 8.54443 | 1387 ft | 16 kts | 108° |
| 2026-05-06 19:22 | 47.45546 | 8.54587 | 1386 ft | 13 kts | 108° |
| 2026-05-06 19:23 | 47.45512 | 8.54744 | 1395 ft | 18 kts | 107° |
| 2026-05-06 19:23 | 47.45472 | 8.54926 | 1401 ft | 19 kts | 110° |
| 2026-05-06 19:23 | 47.45430 | 8.55097 | 1406 ft | 17 kts | 110° |
| 2026-05-06 19:23 | 47.45389 | 8.55253 | 1400 ft | 15 kts | 115° |
| 2026-05-06 19:24 | 47.45345 | 8.55380 | 1402 ft | 12 kts | 118° |
| 2026-05-06 19:24 | 47.45308 | 8.55483 | 1408 ft | 12 kts | 118° |
| 2026-05-06 19:24 | 47.45276 | 8.55595 | 1406 ft | 10 kts | 105° |
| 2026-05-06 19:24 | 47.45279 | 8.55684 | 1410 ft | 8 kts | 47° |
| 2026-05-06 19:25 | 47.45326 | 8.55698 | 1409 ft | 6 kts | 3° |
| 2026-05-06 19:25 | 47.45354 | 8.55702 | 1409 ft | 1 kts | 6° |
| 2026-05-06 19:25 | 47.45355 | 8.55702 | 1409 ft | 0 kts | 6° |